Latest Weather Observations for Hogan Island

IDT60801

Issued at 8:35 pm EDT Sunday 26 October 2014 (issued every 30 minutes, with the page automatically refreshed every 10 minutes)

About weather observations | Map of weather stations | Latest weather observations for TAS | Other Formats
Station Details ID: 200838 Name: HOGAN ISLAND Lat: -39.22 Lon: 146.98 Height: 116.0 m
Data from the previous 72 hours. | See also: Recent months at Hogan Island
Date/Time
EDT
Temp
°C
App
Temp
°C
Dew
Point
Rel
Hum
%
Delta-T
°C
Wind Press
QNH
hPa
Press
MSL
hPa
Rain
since 9 am
mm
Dir
 
Spd
km/h
Gust
km/h
Spd
kts
Gust
kts
26/08:30pm 11.6 7.0 9.7 88 1.0 ENE 24 28 13 15 1010.7 - 0.0
26/08:00pm 11.2 7.4 8.9 86 1.2 E 19 20 10 11 1010.7 - 0.0
26/07:30pm 11.3 8.1 8.3 82 1.5 ESE 15 17 8 9 1010.7 - 0.0
26/07:00pm 12.8 11.2 8.9 77 2.0 SE 7 9 4 5 1011.3 - 0.0
26/06:30pm 14.0 11.9 9.8 76 2.2 SSW 11 15 6 8 1011.3 - 0.0
26/06:00pm 14.5 11.3 10.1 75 2.3 SW 17 20 9 11 1011.3 1011.3 0.0
26/05:30pm 14.8 11.6 9.8 72 2.6 WSW 17 19 9 10 1011.8 - 0.0
26/05:00pm 15.8 12.9 11.0 73 2.6 WSW 17 22 9 12 1011.6 - 0.0
26/04:30pm 14.4 10.3 10.2 76 2.2 W 22 26 12 14 1011.8 - 0.0
26/04:00pm 14.8 10.3 10.2 74 2.4 WSW 24 26 13 14 1012.1 - 0.0
26/03:30pm 14.7 9.5 10.3 75 2.3 W 28 32 15 17 1012.5 - 0.0
26/03:00pm 15.8 11.1 10.8 72 2.7 W 26 30 14 16 1012.5 1012.5 0.0
26/02:30pm 15.8 11.3 10.1 69 3.0 WSW 24 28 13 15 1012.5 - 0.0
26/02:00pm 15.6 11.8 9.7 68 3.1 W 20 24 11 13 1012.8 - 0.0
26/01:30pm 15.6 12.3 9.7 68 3.1 W 17 20 9 11 1012.7 - 0.0
26/01:00pm 16.5 13.3 11.2 71 2.9 WSW 19 22 10 12 1012.8 - 0.0
26/12:30pm 16.0 12.5 11.0 72 2.7 WSW 20 22 11 12 1013.2 - 0.0
26/12:00pm 15.3 11.7 10.5 73 2.5 WSW 20 24 11 13 1013.5 1013.5 0.0
26/11:30am 15.3 11.7 10.5 73 2.5 W 20 24 11 13 1013.8 - 0.0
26/11:00am 15.5 12.1 11.1 75 2.4 WSW 20 24 11 13 1013.8 - 0.0
26/10:30am 15.1 11.7 11.3 78 2.0 WSW 20 22 11 12 1014.0 - 0.0
26/10:00am 15.0 11.8 12.0 82 1.6 WSW 20 24 11 13 1013.9 - 0.0
26/09:30am 14.3 11.4 12.2 87 1.1 WSW 19 20 10 11 1013.9 - 0.0
26/09:00am 13.9 11.8 12.3 90 0.9 SW 15 17 8 9 1013.5 1013.5 0.0
26/08:30am 13.4 11.2 12.1 92 0.7 WSW 15 19 8 10 1013.3 - 0.0
26/08:00am 12.9 10.2 11.8 93 0.6 WSW 17 20 9 11 1013.3 - 0.0
26/07:30am 12.6 10.2 11.5 93 0.6 WSW 15 20 8 11 1013.2 - 0.0
26/07:00am 12.3 10.6 11.2 93 0.6 SSW 11 13 6 7 1013.1 - 0.0
26/06:30am 12.2 10.5 11.1 93 0.6 SW 11 11 6 6 1012.9 - 0.0
26/06:00am 12.1 11.1 11.0 93 0.6 SSW 7 11 4 6 1012.7 1012.7 0.0
26/05:30am 12.2 10.5 11.1 93 0.6 SW 11 13 6 7 1012.8 - 0.0
26/05:00am 12.1 11.0 10.8 92 0.7 SW 7 9 4 5 1012.6 - 0.0
26/04:30am 12.1 10.7 10.8 92 0.7 SW 9 13 5 7 1012.9 - 0.0
26/04:00am 12.0 10.5 10.7 92 0.7 SW 9 11 5 6 1012.7 - 0.0
26/03:30am 12.0 10.5 10.6 91 0.7 SSW 9 13 5 7 1013.2 - 0.0
26/03:00am 11.9 9.9 10.3 90 0.8 WSW 11 13 6 7 1013.5 1013.5 0.0
26/02:30am 11.8 11.1 10.0 89 0.9 WNW 4 13 2 7 1013.9 - 0.0
26/02:00am 11.9 12.0 10.0 88 1.0 CALM 0 0 0 0 1013.8 - 0.0
26/01:30am 12.3 9.2 10.2 87 1.1 WNW 17 20 9 11 1014.4 - 0.0
26/01:00am 12.7 9.7 10.6 87 1.1 WNW 17 19 9 10 1015.0 - 0.0
26/12:30am 12.6 9.9 10.5 87 1.1 WNW 15 17 8 9 1015.6 - 0.0
26/12:00am 12.8 11.0 10.7 87 1.1 NW 11 15 6 8 1015.8 1015.8 0.0
 
Date/Time
EDT
Temp
°C
App
Temp
°C
Dew
Point
Rel
Hum
%
Delta-T
°C
Wind Press
QNH
hPa
Press
MSL
hPa
Rain
since 9 am
mm
Dir
 
Spd
km/h
Gust
km/h
Spd
kts
Gust
kts
25/11:30pm 12.7 11.2 10.4 86 1.2 NE 9 11 5 6 1015.9 - 0.0
25/11:00pm 12.5 11.8 10.2 86 1.2 ENE 4 7 2 4 1016.1 - 0.0
25/10:30pm 12.9 10.6 10.4 85 1.3 E 13 13 7 7 1016.2 - 0.0
25/10:00pm 12.7 11.1 10.2 85 1.3 SSE 9 13 5 7 1016.4 - 0.0
25/09:30pm 12.7 10.3 10.2 85 1.3 S 13 15 7 8 1016.6 - 0.0
25/09:00pm 12.6 11.0 10.1 85 1.3 ESE 9 11 5 6 1016.7 1016.7 0.0
25/08:30pm 12.6 11.3 10.0 84 1.3 ESE 7 9 4 5 1016.6 - 0.0
25/08:00pm 12.7 12.8 10.1 84 1.3 CALM 0 0 0 0 1016.2 - 0.0
25/07:30pm 12.8 12.1 10.0 83 1.4 ESE 4 7 2 4 1016.1 - 0.0
25/07:00pm 13.1 11.1 10.1 82 1.6 SE 11 13 6 7 1015.5 - 0.0
25/06:30pm 13.5 11.2 10.3 81 1.7 S 13 15 7 8 1015.4 - 0.0
25/06:00pm 13.7 10.9 10.1 79 1.9 SSW 15 20 8 11 1015.4 1015.4 0.0
25/05:30pm 14.2 11.0 10.0 76 2.2 SSW 17 24 9 13 1015.3 - 0.0
25/05:00pm 14.8 11.4 10.4 75 2.3 SW 19 20 10 11 1015.2 - 0.0
25/04:30pm 15.4 11.9 10.8 74 2.5 SW 20 24 11 13 1015.3 - 0.0
25/04:00pm 15.2 11.2 10.4 73 2.5 SW 22 26 12 14 1015.3 - 0.0
25/03:30pm 14.8 10.3 10.2 74 2.4 WSW 24 32 13 17 1015.6 - 0.0
25/03:00pm 15.4 11.8 10.6 73 2.5 WSW 20 24 11 13 1015.6 1015.6 0.0
25/02:30pm 16.6 12.0 10.9 69 3.1 SW 26 32 14 17 1015.6 - 0.0
25/02:00pm 16.7 12.5 11.0 69 3.1 SW 24 28 13 15 1015.7 - 0.0
25/01:30pm 16.3 12.1 11.2 72 2.8 WSW 24 28 13 15 1015.8 - 0.0
25/01:00pm 17.8 13.3 12.5 71 3.0 WSW 28 32 15 17 1015.7 - 0.0
25/12:30pm 17.1 11.5 11.6 70 3.0 WSW 32 35 17 19 1015.9 - 0.0
25/12:00pm 17.3 12.2 12.0 71 2.9 W 30 35 16 19 1016.3 1016.3 0.0
25/11:30am 16.5 10.8 11.2 71 2.9 W 32 35 17 19 1016.4 - 0.0
25/11:00am 16.2 9.2 11.2 72 2.7 W 39 43 21 23 1016.6 - 0.0
25/10:30am 16.1 9.9 11.3 73 2.6 W 35 41 19 22 1016.5 - 0.0
25/10:00am 15.9 8.9 11.3 74 2.5 W 39 46 21 25 1016.6 - 0.0
25/09:30am 14.7 7.5 10.5 76 2.2 W 39 46 21 25 1016.7 - 0.0
25/09:00am 14.4 6.7 10.2 76 2.2 W 41 46 22 25 1016.5 1016.5 0.2
25/08:30am 13.5 6.1 9.9 79 1.9 W 39 48 21 26 1016.3 - 0.2
25/08:00am 13.7 5.7 10.3 80 1.8 W 43 48 23 26 1016.2 - 0.2
25/07:30am 13.5 5.8 10.1 80 1.8 W 41 48 22 26 1015.8 - 0.2
25/07:00am 13.2 5.4 9.8 80 1.8 W 41 46 22 25 1015.4 - 0.2
25/06:30am 13.0 4.2 9.6 80 1.7 W 46 52 25 28 1015.2 - 0.2
25/06:00am 12.9 4.1 9.7 81 1.6 W 46 56 25 30 1014.8 1014.8 0.2
25/05:30am 12.7 2.7 9.3 80 1.7 W 52 63 28 34 1014.4 - 0.2
25/05:00am 12.9 2.7 9.9 82 1.5 W 54 63 29 34 1013.9 - 0.2
25/04:30am 13.0 3.2 10.2 83 1.5 W 52 59 28 32 1013.8 - 0.2
25/04:00am 13.1 3.4 10.6 85 1.3 W 52 61 28 33 1013.7 - 0.2
25/03:30am 13.2 3.3 11.1 87 1.1 W 54 63 29 34 1013.8 - 0.2
25/03:00am 13.0 3.9 11.4 90 0.9 W 50 59 27 32 1013.6 1013.6 0.2
25/02:30am 13.4 2.1 12.0 91 0.8 W 63 70 34 38 1013.1 - 0.2
25/02:00am 13.2 3.3 12.3 94 0.5 W 56 65 30 35 1013.1 - 0.2
25/01:30am 13.3 4.9 12.4 94 0.5 W 48 56 26 30 1013.4 - 0.2
25/01:00am 13.2 3.7 12.3 94 0.5 W 54 59 29 32 1013.3 - 0.2
25/12:30am 13.5 5.2 12.6 94 0.5 W 48 57 26 31 1013.2 - 0.2
25/12:00am 13.5 4.4 12.6 94 0.5 W 52 57 28 31 1012.8 1012.8 0.2
 
Date/Time
EDT
Temp
°C
App
Temp
°C
Dew
Point
Rel
Hum
%
Delta-T
°C
Wind Press
QNH
hPa
Press
MSL
hPa
Rain
since 9 am
mm
Dir
 
Spd
km/h
Gust
km/h
Spd
kts
Gust
kts
24/11:30pm 13.5 5.2 12.6 94 0.5 W 48 56 26 30 1012.8 - 0.2
24/11:00pm 13.5 7.3 12.6 94 0.5 W 37 44 20 24 1012.8 - 0.2
24/10:30pm 13.5 6.9 12.6 94 0.5 W 39 46 21 25 1012.9 - 0.2
24/10:00pm 13.6 6.2 12.5 93 0.6 W 43 50 23 27 1012.6 - 0.2
24/09:30pm 13.9 6.4 12.6 92 0.7 W 44 54 24 29 1012.4 - 0.2
24/09:00pm 14.7 5.8 13.2 91 0.8 W 52 65 28 35 1012.3 1012.3 0.2
24/08:57pm 14.8 6.3 13.3 91 0.8 W 50 65 27 35 1012.2 - 0.2
24/08:30pm 14.8 8.4 13.2 90 0.9 W 39 46 21 25 1011.8 - 0.2
24/08:00pm 15.0 10.6 13.0 88 1.1 WNW 28 32 15 17 1011.4 - 0.2
24/07:30pm 15.7 10.5 13.4 86 1.3 WNW 33 39 18 21 1010.7 - 0.2
24/07:00pm 16.5 11.7 14.0 85 1.4 WNW 32 39 17 21 1010.5 - 0.2
24/06:30pm 16.6 11.8 13.9 84 1.5 WNW 32 37 17 20 1010.2 - 0.2
24/06:00pm 16.7 12.8 13.2 80 2.0 W 26 35 14 19 1010.0 1010.0 0.2
24/05:48pm 18.0 14.1 14.5 80 2.0 W 28 37 15 20 1009.9 - 0.2
24/05:30pm 18.7 17.4 13.8 73 2.8 WNW 13 19 7 10 1009.9 - 0.2
24/05:00pm 18.8 19.1 15.1 79 2.2 N 7 11 4 6 1009.7 - 0.2
24/04:30pm 20.7 22.2 18.1 85 1.6 N 7 11 4 6 1009.9 - 0.2
24/04:00pm 18.9 20.0 17.2 90 1.0 N 7 11 4 6 1010.0 - 0.0
24/03:30pm 18.4 19.2 17.2 93 0.7 NE 9 11 5 6 1010.0 - 0.0
24/03:00pm 16.9 15.7 16.1 95 0.5 NNE 17 20 9 11 1010.0 1010.0 0.0
24/02:30pm 17.1 15.7 16.5 96 0.4 NNE 19 20 10 11 1010.2 - 0.0
24/02:00pm 17.3 16.0 16.7 96 0.4 NE 19 22 10 12 1010.6 - 0.0
24/01:30pm 17.2 14.5 16.7 97 0.3 NE 26 30 14 16 1010.7 - 0.0
24/01:00pm 16.4 13.9 16.1 98 0.2 ENE 24 30 13 16 1011.0 - 0.0
24/12:30pm 16.3 14.1 16.0 98 0.2 ENE 22 26 12 14 1011.6 - 0.0
24/12:00pm 16.1 12.3 15.8 98 0.2 ENE 30 35 16 19 1011.8 1011.8 0.0
24/11:30am 16.0 11.2 15.7 98 0.2 ENE 35 39 19 21 1012.1 - 0.0
24/11:00am 15.6 10.7 15.3 98 0.2 ENE 35 43 19 23 1012.5 - 0.0
24/10:30am 15.7 9.1 15.4 98 0.2 E 44 54 24 29 1012.6 - 0.0
24/10:00am 15.3 8.2 15.0 98 0.2 E 46 57 25 31 1012.6 - 0.0
24/09:30am 15.3 8.2 15.0 98 0.2 E 46 59 25 32 1013.2 - 0.0
24/09:00am 15.1 7.5 14.8 98 0.2 E 48 59 26 32 1013.6 1013.6 0.0
24/08:30am 14.9 7.6 14.6 98 0.2 E 46 57 25 31 1013.9 - 0.0
24/08:00am 14.8 7.1 14.5 98 0.2 E 48 61 26 33 1014.4 - 0.0
24/07:30am 14.7 7.4 14.4 98 0.2 E 46 57 25 31 1014.7 - 0.0
24/07:00am 14.7 7.4 14.4 98 0.2 E 46 57 25 31 1014.9 - 0.0
24/06:30am 14.6 6.5 14.3 98 0.2 E 50 59 27 32 1015.0 - 0.0
24/06:00am 14.4 6.2 14.1 98 0.2 E 50 57 27 31 1014.9 1014.9 0.0
24/05:30am 14.3 5.6 13.8 97 0.3 E 52 59 28 32 1015.0 - 0.0
24/05:00am 14.2 5.1 13.7 97 0.3 E 54 67 29 36 1015.0 - 0.0
24/04:30am 14.1 5.0 13.6 97 0.3 E 54 63 29 34 1015.1 - 0.0
24/04:00am 14.0 4.5 13.5 97 0.3 E 56 63 30 34 1015.5 - 0.0
24/03:30am 13.9 4.7 13.4 97 0.3 E 54 67 29 36 1016.1 - 0.0
24/03:00am 13.8 4.0 13.2 96 0.3 E 57 65 31 35 1016.6 1016.6 0.0
24/02:30am 13.6 3.7 13.0 96 0.3 E 57 65 31 35 1016.9 - 0.0
24/02:00am 13.4 3.4 12.6 95 0.4 E 57 65 31 35 1017.5 - 0.0
24/01:30am 13.3 2.1 12.4 94 0.5 E 63 72 34 39 1018.0 - 0.0
24/01:00am 13.3 2.3 12.0 92 0.7 E 61 72 33 39 1018.5 - 0.0
24/12:30am 13.3 1.9 11.9 91 0.8 E 63 72 34 39 1018.8 - 0.0
24/12:00am 13.3 2.2 11.5 89 1.0 E 61 69 33 37 1019.0 1019.1 0.0
 
Date/Time
EDT
Temp
°C
App
Temp
°C
Dew
Point
Rel
Hum
%
Delta-T
°C
Wind Press
QNH
hPa
Press
MSL
hPa
Rain
since 9 am
mm
Dir
 
Spd
km/h
Gust
km/h
Spd
kts
Gust
kts
23/11:30pm 13.2 2.1 11.4 89 1.0 E 61 72 33 39 1019.4 - 0.0
23/11:00pm 13.3 2.2 11.5 89 1.0 E 61 69 33 37 1020.0 - 0.0
23/10:30pm 13.2 2.5 11.6 90 0.9 E 59 69 32 37 1020.2 - 0.0
23/10:00pm 13.1 1.9 11.3 89 1.0 E 61 69 33 37 1020.5 - 0.0
23/09:30pm 13.1 1.9 11.3 89 1.0 E 61 72 33 39 1020.8 - 0.0
23/09:00pm 13.1 1.9 11.2 88 1.0 E 61 70 33 38 1020.8 1020.8 0.0

Other Formats:

Comma delimited format used in spreadsheet applications
http://www.bom.gov.au/fwo/IDT60801/IDT60801.94949.axf

JavaScript Object Notation format (JSON) in row-major order
http://www.bom.gov.au/fwo/IDT60801/IDT60801.94949.json